sensor_id;sensor_type;location;lat;lon;timestamp;P1;durP1;ratioP1;P2;durP2;ratioP2
6614;SDS011;3343;42.896;23.912;2023-02-21T00:00:28;1.37;;;1.27;;
6614;SDS011;3343;42.896;23.912;2023-02-21T00:03:12;1.47;;;1.37;;
6614;SDS011;3343;42.896;23.912;2023-02-21T00:05:57;2.10;;;1.23;;
6614;SDS011;3343;42.896;23.912;2023-02-21T00:08:43;2.80;;;1.37;;
6614;SDS011;3343;42.896;23.912;2023-02-21T00:11:27;1.30;;;1.20;;
6614;SDS011;3343;42.896;23.912;2023-02-21T00:14:11;1.23;;;1.13;;
6614;SDS011;3343;42.896;23.912;2023-02-21T00:16:56;1.40;;;1.30;;
6614;SDS011;3343;42.896;23.912;2023-02-21T00:19:40;1.27;;;1.10;;
6614;SDS011;3343;42.896;23.912;2023-02-21T00:22:25;3.17;;;1.90;;
6614;SDS011;3343;42.896;23.912;2023-02-21T00:25:10;2.70;;;1.50;;
6614;SDS011;3343;42.896;23.912;2023-02-21T00:27:55;3.10;;;1.73;;
6614;SDS011;3343;42.896;23.912;2023-02-21T00:30:39;2.57;;;1.57;;
6614;SDS011;3343;42.896;23.912;2023-02-21T00:33:23;1.90;;;1.57;;
6614;SDS011;3343;42.896;23.912;2023-02-21T00:36:08;2.77;;;1.40;;
6614;SDS011;3343;42.896;23.912;2023-02-21T00:38:57;3.27;;;1.77;;
6614;SDS011;3343;42.896;23.912;2023-02-21T00:41:43;5.23;;;1.97;;
6614;SDS011;3343;42.896;23.912;2023-02-21T00:44:27;4.27;;;2.17;;
6614;SDS011;3343;42.896;23.912;2023-02-21T00:47:11;2.67;;;1.73;;
6614;SDS011;3343;42.896;23.912;2023-02-21T00:49:56;2.33;;;1.80;;
6614;SDS011;3343;42.896;23.912;2023-02-21T00:52:40;1.97;;;1.70;;
6614;SDS011;3343;42.896;23.912;2023-02-21T00:55:25;2.33;;;1.60;;
6614;SDS011;3343;42.896;23.912;2023-02-21T00:58:11;1.87;;;1.70;;
6614;SDS011;3343;42.896;23.912;2023-02-21T01:00:55;3.07;;;1.87;;
6614;SDS011;3343;42.896;23.912;2023-02-21T01:03:39;1.87;;;1.50;;
6614;SDS011;3343;42.896;23.912;2023-02-21T01:06:24;2.13;;;1.27;;
6614;SDS011;3343;42.896;23.912;2023-02-21T01:09:09;2.23;;;1.90;;
6614;SDS011;3343;42.896;23.912;2023-02-21T01:11:53;1.83;;;1.43;;
6614;SDS011;3343;42.896;23.912;2023-02-21T01:14:39;3.07;;;1.63;;
6614;SDS011;3343;42.896;23.912;2023-02-21T01:17:23;2.20;;;1.33;;
6614;SDS011;3343;42.896;23.912;2023-02-21T01:20:07;1.40;;;1.20;;
6614;SDS011;3343;42.896;23.912;2023-02-21T01:22:52;1.80;;;1.43;;
6614;SDS011;3343;42.896;23.912;2023-02-21T01:25:37;2.00;;;1.37;;
6614;SDS011;3343;42.896;23.912;2023-02-21T01:28:21;2.13;;;1.20;;
6614;SDS011;3343;42.896;23.912;2023-02-21T01:31:07;4.73;;;1.43;;
6614;SDS011;3343;42.896;23.912;2023-02-21T01:33:52;2.50;;;1.27;;
6614;SDS011;3343;42.896;23.912;2023-02-21T01:36:39;5.33;;;1.20;;
6614;SDS011;3343;42.896;23.912;2023-02-21T01:39:23;1.33;;;1.23;;
6614;SDS011;3343;42.896;23.912;2023-02-21T01:42:08;1.67;;;1.30;;
6614;SDS011;3343;42.896;23.912;2023-02-21T01:45:05;1.10;;;1.00;;
6614;SDS011;3343;42.896;23.912;2023-02-21T01:48:22;1.40;;;1.30;;
6614;SDS011;3343;42.896;23.912;2023-02-21T01:51:09;2.03;;;0.93;;
6614;SDS011;3343;42.896;23.912;2023-02-21T01:53:56;1.40;;;1.30;;
6614;SDS011;3343;42.896;23.912;2023-02-21T01:56:41;1.97;;;1.43;;
6614;SDS011;3343;42.896;23.912;2023-02-21T01:59:26;1.43;;;1.33;;
6614;SDS011;3343;42.896;23.912;2023-02-21T02:02:13;1.90;;;1.40;;
6614;SDS011;3343;42.896;23.912;2023-02-21T02:05:02;4.23;;;1.67;;
6614;SDS011;3343;42.896;23.912;2023-02-21T02:07:48;2.33;;;1.80;;
6614;SDS011;3343;42.896;23.912;2023-02-21T02:10:35;1.90;;;1.10;;
6614;SDS011;3343;42.896;23.912;2023-02-21T02:13:30;1.60;;;1.13;;
6614;SDS011;3343;42.896;23.912;2023-02-21T02:16:09;2.23;;;1.63;;
6614;SDS011;3343;42.896;23.912;2023-02-21T02:18:54;2.30;;;1.53;;
6614;SDS011;3343;42.896;23.912;2023-02-21T02:24:36;3.33;;;1.30;;
6614;SDS011;3343;42.896;23.912;2023-02-21T02:33:38;1.40;;;1.30;;
6614;SDS011;3343;42.896;23.912;2023-02-21T02:36:22;2.03;;;1.33;;
6614;SDS011;3343;42.896;23.912;2023-02-21T02:38:56;1.83;;;1.50;;
6614;SDS011;3343;42.896;23.912;2023-02-21T02:41:31;1.40;;;1.30;;
6614;SDS011;3343;42.896;23.912;2023-02-21T02:44:11;2.63;;;1.30;;
6614;SDS011;3343;42.896;23.912;2023-02-21T02:46:44;1.57;;;1.27;;
6614;SDS011;3343;42.896;23.912;2023-02-21T02:49:15;1.57;;;1.47;;
6614;SDS011;3343;42.896;23.912;2023-02-21T02:51:46;1.40;;;1.30;;
6614;SDS011;3343;42.896;23.912;2023-02-21T02:54:13;1.77;;;1.57;;
6614;SDS011;3343;42.896;23.912;2023-02-21T02:56:40;1.40;;;1.30;;
6614;SDS011;3343;42.896;23.912;2023-02-21T02:59:07;1.70;;;1.30;;
6614;SDS011;3343;42.896;23.912;2023-02-21T03:01:44;2.30;;;1.70;;
6614;SDS011;3343;42.896;23.912;2023-02-21T03:04:32;3.97;;;1.20;;
6614;SDS011;3343;42.896;23.912;2023-02-21T03:07:16;4.80;;;1.57;;
6614;SDS011;3343;42.896;23.912;2023-02-21T03:09:53;1.73;;;1.47;;
6614;SDS011;3343;42.896;23.912;2023-02-21T03:12:29;2.50;;;1.67;;
6614;SDS011;3343;42.896;23.912;2023-02-21T03:15:02;1.50;;;1.40;;
6614;SDS011;3343;42.896;23.912;2023-02-21T03:17:35;2.23;;;1.50;;
6614;SDS011;3343;42.896;23.912;2023-02-21T03:20:08;1.70;;;1.40;;
6614;SDS011;3343;42.896;23.912;2023-02-21T03:22:39;1.97;;;1.57;;
6614;SDS011;3343;42.896;23.912;2023-02-21T03:25:08;1.50;;;1.40;;
6614;SDS011;3343;42.896;23.912;2023-02-21T03:27:37;1.93;;;1.40;;
6614;SDS011;3343;42.896;23.912;2023-02-21T03:30:05;3.43;;;2.50;;
6614;SDS011;3343;42.896;23.912;2023-02-21T03:32:35;4.97;;;3.80;;
6614;SDS011;3343;42.896;23.912;2023-02-21T03:35:04;7.33;;;4.43;;
6614;SDS011;3343;42.896;23.912;2023-02-21T03:37:33;8.03;;;4.93;;
6614;SDS011;3343;42.896;23.912;2023-02-21T03:40:04;5.10;;;2.23;;
6614;SDS011;3343;42.896;23.912;2023-02-21T03:42:31;2.23;;;1.77;;
6614;SDS011;3343;42.896;23.912;2023-02-21T03:44:58;6.60;;;3.07;;
6614;SDS011;3343;42.896;23.912;2023-02-21T03:47:25;1.70;;;1.53;;
6614;SDS011;3343;42.896;23.912;2023-02-21T03:49:52;3.50;;;2.60;;
6614;SDS011;3343;42.896;23.912;2023-02-21T03:52:19;3.20;;;2.53;;
6614;SDS011;3343;42.896;23.912;2023-02-21T03:54:46;2.80;;;1.77;;
6614;SDS011;3343;42.896;23.912;2023-02-21T03:57:14;2.40;;;1.90;;
6614;SDS011;3343;42.896;23.912;2023-02-21T03:59:41;3.20;;;1.83;;
6614;SDS011;3343;42.896;23.912;2023-02-21T04:02:08;1.67;;;1.57;;
6614;SDS011;3343;42.896;23.912;2023-02-21T04:04:35;2.30;;;1.50;;
6614;SDS011;3343;42.896;23.912;2023-02-21T04:07:02;3.03;;;1.93;;
6614;SDS011;3343;42.896;23.912;2023-02-21T04:09:29;1.57;;;1.43;;
6614;SDS011;3343;42.896;23.912;2023-02-21T04:11:56;2.53;;;1.50;;
6614;SDS011;3343;42.896;23.912;2023-02-21T04:14:24;2.57;;;1.90;;
6614;SDS011;3343;42.896;23.912;2023-02-21T04:16:51;3.00;;;2.10;;
6614;SDS011;3343;42.896;23.912;2023-02-21T04:19:18;1.53;;;1.40;;
6614;SDS011;3343;42.896;23.912;2023-02-21T04:21:44;2.03;;;1.43;;
6614;SDS011;3343;42.896;23.912;2023-02-21T04:24:11;1.50;;;1.40;;
6614;SDS011;3343;42.896;23.912;2023-02-21T04:26:38;1.73;;;1.40;;
6614;SDS011;3343;42.896;23.912;2023-02-21T04:29:05;10.37;;;3.43;;
6614;SDS011;3343;42.896;23.912;2023-02-21T04:31:33;2.50;;;1.73;;
6614;SDS011;3343;42.896;23.912;2023-02-21T04:34:00;4.00;;;1.77;;
6614;SDS011;3343;42.896;23.912;2023-02-21T04:36:27;4.23;;;2.30;;
6614;SDS011;3343;42.896;23.912;2023-02-21T04:38:54;3.03;;;2.00;;
6614;SDS011;3343;42.896;23.912;2023-02-21T04:41:21;2.63;;;1.93;;
6614;SDS011;3343;42.896;23.912;2023-02-21T04:43:48;2.67;;;1.90;;
6614;SDS011;3343;42.896;23.912;2023-02-21T04:46:16;5.57;;;2.27;;
6614;SDS011;3343;42.896;23.912;2023-02-21T04:48:46;4.10;;;1.90;;
6614;SDS011;3343;42.896;23.912;2023-02-21T04:51:15;3.30;;;1.53;;
6614;SDS011;3343;42.896;23.912;2023-02-21T04:53:45;2.40;;;1.60;;
6614;SDS011;3343;42.896;23.912;2023-02-21T04:56:12;2.27;;;1.63;;
6614;SDS011;3343;42.896;23.912;2023-02-21T04:58:40;2.83;;;1.60;;
6614;SDS011;3343;42.896;23.912;2023-02-21T05:01:09;2.30;;;2.10;;
6614;SDS011;3343;42.896;23.912;2023-02-21T05:03:36;1.93;;;1.53;;
6614;SDS011;3343;42.896;23.912;2023-02-21T05:06:05;2.00;;;1.60;;
6614;SDS011;3343;42.896;23.912;2023-02-21T05:08:32;1.97;;;1.57;;
6614;SDS011;3343;42.896;23.912;2023-02-21T05:10:58;2.33;;;1.70;;
6614;SDS011;3343;42.896;23.912;2023-02-21T05:13:25;3.43;;;2.47;;
6614;SDS011;3343;42.896;23.912;2023-02-21T05:15:53;3.57;;;1.67;;
6614;SDS011;3343;42.896;23.912;2023-02-21T05:18:20;2.43;;;2.07;;
6614;SDS011;3343;42.896;23.912;2023-02-21T05:20:50;2.67;;;1.93;;
6614;SDS011;3343;42.896;23.912;2023-02-21T05:23:19;2.13;;;1.60;;
6614;SDS011;3343;42.896;23.912;2023-02-21T05:25:58;1.93;;;1.30;;
6614;SDS011;3343;42.896;23.912;2023-02-21T05:28:25;1.90;;;1.60;;
6614;SDS011;3343;42.896;23.912;2023-02-21T05:30:53;3.03;;;1.90;;
6614;SDS011;3343;42.896;23.912;2023-02-21T05:33:20;3.03;;;2.43;;
6614;SDS011;3343;42.896;23.912;2023-02-21T05:35:47;5.23;;;3.13;;
6614;SDS011;3343;42.896;23.912;2023-02-21T05:38:15;2.47;;;1.97;;
6614;SDS011;3343;42.896;23.912;2023-02-21T05:40:44;1.83;;;1.63;;
6614;SDS011;3343;42.896;23.912;2023-02-21T05:43:11;2.30;;;1.47;;
6614;SDS011;3343;42.896;23.912;2023-02-21T05:45:38;3.27;;;1.60;;
6614;SDS011;3343;42.896;23.912;2023-02-21T05:48:05;3.53;;;2.23;;
6614;SDS011;3343;42.896;23.912;2023-02-21T05:50:32;3.10;;;2.73;;
6614;SDS011;3343;42.896;23.912;2023-02-21T05:52:59;4.37;;;2.50;;
6614;SDS011;3343;42.896;23.912;2023-02-21T05:55:27;4.40;;;2.37;;
6614;SDS011;3343;42.896;23.912;2023-02-21T05:57:55;1.90;;;1.67;;
6614;SDS011;3343;42.896;23.912;2023-02-21T06:00:23;3.30;;;1.70;;
6614;SDS011;3343;42.896;23.912;2023-02-21T06:02:52;3.43;;;2.27;;
6614;SDS011;3343;42.896;23.912;2023-02-21T06:05:20;4.07;;;3.00;;
6614;SDS011;3343;42.896;23.912;2023-02-21T06:07:48;4.80;;;3.50;;
6614;SDS011;3343;42.896;23.912;2023-02-21T06:10:15;3.53;;;3.10;;
6614;SDS011;3343;42.896;23.912;2023-02-21T06:12:43;4.97;;;3.47;;
6614;SDS011;3343;42.896;23.912;2023-02-21T06:15:11;7.93;;;4.30;;
6614;SDS011;3343;42.896;23.912;2023-02-21T06:17:39;8.30;;;4.33;;
6614;SDS011;3343;42.896;23.912;2023-02-21T06:20:07;7.47;;;3.70;;
6614;SDS011;3343;42.896;23.912;2023-02-21T06:22:34;8.37;;;4.37;;
6614;SDS011;3343;42.896;23.912;2023-02-21T06:25:01;9.37;;;4.93;;
6614;SDS011;3343;42.896;23.912;2023-02-21T06:27:30;10.03;;;5.67;;
6614;SDS011;3343;42.896;23.912;2023-02-21T06:29:57;8.87;;;4.97;;
6614;SDS011;3343;42.896;23.912;2023-02-21T06:32:25;8.03;;;3.60;;
6614;SDS011;3343;42.896;23.912;2023-02-21T06:34:53;4.20;;;3.27;;
6614;SDS011;3343;42.896;23.912;2023-02-21T06:37:19;6.70;;;3.83;;
6614;SDS011;3343;42.896;23.912;2023-02-21T06:39:46;8.33;;;3.97;;
6614;SDS011;3343;42.896;23.912;2023-02-21T06:42:13;7.67;;;5.67;;
6614;SDS011;3343;42.896;23.912;2023-02-21T06:44:42;18.80;;;8.90;;
6614;SDS011;3343;42.896;23.912;2023-02-21T06:47:09;30.60;;;16.43;;
6614;SDS011;3343;42.896;23.912;2023-02-21T06:49:37;34.50;;;18.40;;
6614;SDS011;3343;42.896;23.912;2023-02-21T06:52:05;36.67;;;16.97;;
6614;SDS011;3343;42.896;23.912;2023-02-21T06:54:32;25.80;;;14.57;;
6614;SDS011;3343;42.896;23.912;2023-02-21T06:56:59;24.57;;;14.27;;
6614;SDS011;3343;42.896;23.912;2023-02-21T06:59:27;30.13;;;14.97;;
6614;SDS011;3343;42.896;23.912;2023-02-21T07:01:53;30.83;;;14.20;;
6614;SDS011;3343;42.896;23.912;2023-02-21T07:04:20;27.03;;;15.83;;
6614;SDS011;3343;42.896;23.912;2023-02-21T07:06:49;23.87;;;12.67;;
6614;SDS011;3343;42.896;23.912;2023-02-21T07:09:16;23.80;;;12.67;;
6614;SDS011;3343;42.896;23.912;2023-02-21T07:11:43;27.30;;;15.70;;
6614;SDS011;3343;42.896;23.912;2023-02-21T07:14:11;31.43;;;17.17;;
6614;SDS011;3343;42.896;23.912;2023-02-21T07:16:38;31.30;;;16.97;;
6614;SDS011;3343;42.896;23.912;2023-02-21T07:19:05;30.30;;;18.17;;
6614;SDS011;3343;42.896;23.912;2023-02-21T07:21:31;26.47;;;14.37;;
6614;SDS011;3343;42.896;23.912;2023-02-21T07:24:00;18.93;;;11.87;;
6614;SDS011;3343;42.896;23.912;2023-02-21T07:26:26;7.37;;;3.53;;
6614;SDS011;3343;42.896;23.912;2023-02-21T07:28:53;5.33;;;3.27;;
6614;SDS011;3343;42.896;23.912;2023-02-21T07:31:20;4.23;;;2.87;;
6614;SDS011;3343;42.896;23.912;2023-02-21T07:33:47;4.07;;;2.47;;
6614;SDS011;3343;42.896;23.912;2023-02-21T07:36:14;3.77;;;2.60;;
6614;SDS011;3343;42.896;23.912;2023-02-21T07:38:41;3.63;;;2.53;;
6614;SDS011;3343;42.896;23.912;2023-02-21T07:41:09;4.60;;;3.10;;
6614;SDS011;3343;42.896;23.912;2023-02-21T07:43:36;5.17;;;3.13;;
6614;SDS011;3343;42.896;23.912;2023-02-21T07:46:03;5.60;;;2.77;;
6614;SDS011;3343;42.896;23.912;2023-02-21T07:48:34;4.47;;;2.40;;
6614;SDS011;3343;42.896;23.912;2023-02-21T07:51:01;4.57;;;2.70;;
6614;SDS011;3343;42.896;23.912;2023-02-21T07:53:28;4.20;;;2.60;;
6614;SDS011;3343;42.896;23.912;2023-02-21T07:55:54;3.80;;;2.40;;
6614;SDS011;3343;42.896;23.912;2023-02-21T07:58:22;3.43;;;2.00;;
6614;SDS011;3343;42.896;23.912;2023-02-21T08:00:50;3.55;;;2.50;;
6614;SDS011;3343;42.896;23.912;2023-02-21T08:03:20;6.45;;;2.45;;
6614;SDS011;3343;42.896;23.912;2023-02-21T08:05:47;3.45;;;2.08;;
6614;SDS011;3343;42.896;23.912;2023-02-21T08:08:14;2.00;;;1.70;;
6614;SDS011;3343;42.896;23.912;2023-02-21T08:10:41;6.25;;;1.80;;
6614;SDS011;3343;42.896;23.912;2023-02-21T08:13:08;2.35;;;1.58;;
6614;SDS011;3343;42.896;23.912;2023-02-21T08:15:36;3.20;;;1.55;;
6614;SDS011;3343;42.896;23.912;2023-02-21T08:18:03;2.13;;;1.63;;
6614;SDS011;3343;42.896;23.912;2023-02-21T08:20:30;2.97;;;1.70;;
6614;SDS011;3343;42.896;23.912;2023-02-21T08:22:57;2.55;;;1.67;;
6614;SDS011;3343;42.896;23.912;2023-02-21T08:25:24;4.22;;;2.00;;
6614;SDS011;3343;42.896;23.912;2023-02-21T08:27:51;1.58;;;1.40;;
6614;SDS011;3343;42.896;23.912;2023-02-21T08:30:19;2.72;;;1.90;;
6614;SDS011;3343;42.896;23.912;2023-02-21T08:32:48;2.35;;;1.23;;
6614;SDS011;3343;42.896;23.912;2023-02-21T08:35:16;2.30;;;1.42;;
6614;SDS011;3343;42.896;23.912;2023-02-21T08:37:44;1.33;;;1.20;;
6614;SDS011;3343;42.896;23.912;2023-02-21T08:40:12;1.27;;;1.10;;
6614;SDS011;3343;42.896;23.912;2023-02-21T08:42:39;3.85;;;1.48;;
6614;SDS011;3343;42.896;23.912;2023-02-21T08:45:06;2.50;;;1.77;;
6614;SDS011;3343;42.896;23.912;2023-02-21T08:47:35;1.52;;;1.30;;
6614;SDS011;3343;42.896;23.912;2023-02-21T08:50:04;2.22;;;1.45;;
6614;SDS011;3343;42.896;23.912;2023-02-21T08:52:31;1.52;;;1.30;;
6614;SDS011;3343;42.896;23.912;2023-02-21T08:54:58;2.95;;;1.42;;
6614;SDS011;3343;42.896;23.912;2023-02-21T08:57:25;1.30;;;1.00;;
6614;SDS011;3343;42.896;23.912;2023-02-21T08:59:52;2.00;;;1.35;;
6614;SDS011;3343;42.896;23.912;2023-02-21T09:02:19;1.45;;;1.35;;
6614;SDS011;3343;42.896;23.912;2023-02-21T09:04:49;2.03;;;1.30;;
6614;SDS011;3343;42.896;23.912;2023-02-21T09:07:18;5.25;;;1.30;;
6614;SDS011;3343;42.896;23.912;2023-02-21T09:09:47;1.77;;;1.20;;
6614;SDS011;3343;42.896;23.912;2023-02-21T09:12:14;1.33;;;1.15;;
6614;SDS011;3343;42.896;23.912;2023-02-21T09:14:41;3.42;;;1.42;;
6614;SDS011;3343;42.896;23.912;2023-02-21T09:17:10;2.08;;;1.48;;
6614;SDS011;3343;42.896;23.912;2023-02-21T09:19:38;3.45;;;1.67;;
6614;SDS011;3343;42.896;23.912;2023-02-21T09:22:06;2.63;;;1.60;;
6614;SDS011;3343;42.896;23.912;2023-02-21T09:24:34;1.40;;;1.30;;
6614;SDS011;3343;42.896;23.912;2023-02-21T09:27:02;1.85;;;1.20;;
6614;SDS011;3343;42.896;23.912;2023-02-21T09:29:30;1.05;;;0.95;;
6614;SDS011;3343;42.896;23.912;2023-02-21T09:31:58;1.40;;;1.27;;
6614;SDS011;3343;42.896;23.912;2023-02-21T09:34:26;0.88;;;0.88;;
6614;SDS011;3343;42.896;23.912;2023-02-21T09:36:53;2.30;;;1.20;;
6614;SDS011;3343;42.896;23.912;2023-02-21T09:39:21;1.48;;;1.17;;
6614;SDS011;3343;42.896;23.912;2023-02-21T09:41:50;1.05;;;0.90;;
6614;SDS011;3343;42.896;23.912;2023-02-21T09:44:21;3.00;;;1.20;;
6614;SDS011;3343;42.896;23.912;2023-02-21T09:46:50;1.65;;;1.10;;
6614;SDS011;3343;42.896;23.912;2023-02-21T09:49:20;1.40;;;1.02;;
6614;SDS011;3343;42.896;23.912;2023-02-21T09:51:51;2.28;;;1.65;;
6614;SDS011;3343;42.896;23.912;2023-02-21T09:54:22;1.10;;;1.00;;
6614;SDS011;3343;42.896;23.912;2023-02-21T09:56:52;1.40;;;1.10;;
6614;SDS011;3343;42.896;23.912;2023-02-21T09:59:21;2.55;;;1.58;;
6614;SDS011;3343;42.896;23.912;2023-02-21T10:01:55;1.60;;;1.17;;
6614;SDS011;3343;42.896;23.912;2023-02-21T10:04:41;1.85;;;1.27;;
6614;SDS011;3343;42.896;23.912;2023-02-21T10:07:24;2.20;;;1.20;;
6614;SDS011;3343;42.896;23.912;2023-02-21T10:10:01;1.95;;;1.20;;
6614;SDS011;3343;42.896;23.912;2023-02-21T10:12:34;1.30;;;1.20;;
6614;SDS011;3343;42.896;23.912;2023-02-21T10:15:18;1.83;;;1.08;;
6614;SDS011;3343;42.896;23.912;2023-02-21T10:17:59;2.65;;;1.10;;
6614;SDS011;3343;42.896;23.912;2023-02-21T10:20:32;1.35;;;1.25;;
6614;SDS011;3343;42.896;23.912;2023-02-21T10:23:04;1.25;;;1.10;;
6614;SDS011;3343;42.896;23.912;2023-02-21T10:25:41;5.00;;;1.15;;
6614;SDS011;3343;42.896;23.912;2023-02-21T10:28:13;1.10;;;0.90;;
6614;SDS011;3343;42.896;23.912;2023-02-21T10:30:44;1.20;;;1.00;;
6614;SDS011;3343;42.896;23.912;2023-02-21T10:33:13;1.05;;;0.95;;
6614;SDS011;3343;42.896;23.912;2023-02-21T10:35:41;6.95;;;1.00;;
6614;SDS011;3343;42.896;23.912;2023-02-21T10:38:09;2.13;;;1.13;;
6614;SDS011;3343;42.896;23.912;2023-02-21T10:40:39;1.60;;;1.27;;
6614;SDS011;3343;42.896;23.912;2023-02-21T10:43:08;1.70;;;1.08;;
6614;SDS011;3343;42.896;23.912;2023-02-21T10:45:41;1.13;;;1.02;;
6614;SDS011;3343;42.896;23.912;2023-02-21T10:48:11;1.23;;;1.13;;
6614;SDS011;3343;42.896;23.912;2023-02-21T10:50:41;1.48;;;0.90;;
6614;SDS011;3343;42.896;23.912;2023-02-21T10:53:32;1.10;;;0.90;;
6614;SDS011;3343;42.896;23.912;2023-02-21T10:56:20;1.35;;;1.05;;
6614;SDS011;3343;42.896;23.912;2023-02-21T10:58:53;1.50;;;1.20;;
6614;SDS011;3343;42.896;23.912;2023-02-21T11:01:31;1.33;;;0.98;;
6614;SDS011;3343;42.896;23.912;2023-02-21T11:04:04;1.33;;;1.10;;
6614;SDS011;3343;42.896;23.912;2023-02-21T11:06:33;1.95;;;1.27;;
6614;SDS011;3343;42.896;23.912;2023-02-21T11:09:03;1.27;;;1.00;;
6614;SDS011;3343;42.896;23.912;2023-02-21T11:11:58;1.35;;;1.25;;
6614;SDS011;3343;42.896;23.912;2023-02-21T11:14:27;2.92;;;1.00;;
6614;SDS011;3343;42.896;23.912;2023-02-21T11:17:06;1.55;;;1.33;;
6614;SDS011;3343;42.896;23.912;2023-02-21T11:19:45;1.30;;;1.20;;
6614;SDS011;3343;42.896;23.912;2023-02-21T11:22:15;2.53;;;1.15;;
6614;SDS011;3343;42.896;23.912;2023-02-21T11:24:57;3.13;;;1.15;;
6614;SDS011;3343;42.896;23.912;2023-02-21T11:27:26;1.20;;;1.10;;
6614;SDS011;3343;42.896;23.912;2023-02-21T11:29:55;1.75;;;1.20;;
6614;SDS011;3343;42.896;23.912;2023-02-21T11:32:28;1.45;;;1.30;;
6614;SDS011;3343;42.896;23.912;2023-02-21T11:35:00;2.35;;;1.30;;
6614;SDS011;3343;42.896;23.912;2023-02-21T11:37:30;1.33;;;1.23;;
6614;SDS011;3343;42.896;23.912;2023-02-21T11:39:58;1.52;;;1.10;;
6614;SDS011;3343;42.896;23.912;2023-02-21T11:42:27;4.00;;;1.10;;
6614;SDS011;3343;42.896;23.912;2023-02-21T11:45:16;1.23;;;1.10;;
6614;SDS011;3343;42.896;23.912;2023-02-21T11:47:51;1.23;;;1.13;;
6614;SDS011;3343;42.896;23.912;2023-02-21T11:50:24;1.10;;;1.00;;
6614;SDS011;3343;42.896;23.912;2023-02-21T11:52:54;1.15;;;1.05;;
6614;SDS011;3343;42.896;23.912;2023-02-21T11:55:27;1.40;;;1.10;;
6614;SDS011;3343;42.896;23.912;2023-02-21T11:57:56;1.40;;;1.30;;
6614;SDS011;3343;42.896;23.912;2023-02-21T12:00:35;1.73;;;1.15;;
6614;SDS011;3343;42.896;23.912;2023-02-21T12:06:10;4.47;;;1.25;;
6614;SDS011;3343;42.896;23.912;2023-02-21T12:08:44;1.08;;;0.98;;
6614;SDS011;3343;42.896;23.912;2023-02-21T12:14:07;3.08;;;1.38;;
6614;SDS011;3343;42.896;23.912;2023-02-21T12:16:45;2.42;;;1.10;;
6614;SDS011;3343;42.896;23.912;2023-02-21T12:19:28;1.25;;;1.15;;
6614;SDS011;3343;42.896;23.912;2023-02-21T12:22:07;2.08;;;1.17;;
6614;SDS011;3343;42.896;23.912;2023-02-21T12:24:54;1.25;;;1.15;;
6614;SDS011;3343;42.896;23.912;2023-02-21T12:27:31;1.40;;;1.27;;
6614;SDS011;3343;42.896;23.912;2023-02-21T12:30:08;2.95;;;1.17;;
6614;SDS011;3343;42.896;23.912;2023-02-21T12:32:53;1.90;;;1.38;;
6614;SDS011;3343;42.896;23.912;2023-02-21T12:35:40;2.28;;;1.10;;
6614;SDS011;3343;42.896;23.912;2023-02-21T12:38:17;1.42;;;0.93;;
6614;SDS011;3343;42.896;23.912;2023-02-21T12:40:51;1.77;;;1.20;;
6614;SDS011;3343;42.896;23.912;2023-02-21T12:43:41;2.22;;;0.85;;
6614;SDS011;3343;42.896;23.912;2023-02-21T12:46:19;1.00;;;0.90;;
6614;SDS011;3343;42.896;23.912;2023-02-21T12:48:53;1.50;;;1.20;;
6614;SDS011;3343;42.896;23.912;2023-02-21T12:51:27;1.25;;;1.15;;
6614;SDS011;3343;42.896;23.912;2023-02-21T12:54:01;1.60;;;1.23;;
6614;SDS011;3343;42.896;23.912;2023-02-21T12:56:32;2.80;;;1.33;;
6614;SDS011;3343;42.896;23.912;2023-02-21T12:59:05;1.35;;;1.20;;
6614;SDS011;3343;42.896;23.912;2023-02-21T13:01:40;1.55;;;1.15;;
6614;SDS011;3343;42.896;23.912;2023-02-21T13:04:14;1.10;;;0.93;;
6614;SDS011;3343;42.896;23.912;2023-02-21T13:06:50;1.88;;;1.40;;
6614;SDS011;3343;42.896;23.912;2023-02-21T13:09:23;1.60;;;1.40;;
6614;SDS011;3343;42.896;23.912;2023-02-21T13:11:59;1.83;;;1.40;;
6614;SDS011;3343;42.896;23.912;2023-02-21T13:14:35;0.90;;;0.82;;
6614;SDS011;3343;42.896;23.912;2023-02-21T13:17:08;0.85;;;0.85;;
6614;SDS011;3343;42.896;23.912;2023-02-21T13:19:45;0.80;;;0.77;;
6614;SDS011;3343;42.896;23.912;2023-02-21T13:25:42;0.70;;;0.70;;
6614;SDS011;3343;42.896;23.912;2023-02-21T13:28:19;1.92;;;0.93;;
6614;SDS011;3343;42.896;23.912;2023-02-21T13:30:49;1.88;;;1.00;;
6614;SDS011;3343;42.896;23.912;2023-02-21T13:33:22;1.42;;;0.90;;
6614;SDS011;3343;42.896;23.912;2023-02-21T13:35:52;1.10;;;0.98;;
6614;SDS011;3343;42.896;23.912;2023-02-21T13:38:25;1.27;;;0.90;;
6614;SDS011;3343;42.896;23.912;2023-02-21T13:41:02;1.70;;;1.20;;
6614;SDS011;3343;42.896;23.912;2023-02-21T13:43:34;1.13;;;1.02;;
6614;SDS011;3343;42.896;23.912;2023-02-21T13:46:22;1.50;;;0.93;;
6614;SDS011;3343;42.896;23.912;2023-02-21T13:51:56;1.10;;;1.00;;
6614;SDS011;3343;42.896;23.912;2023-02-21T13:55:08;1.58;;;1.10;;
6614;SDS011;3343;42.896;23.912;2023-02-21T14:01:11;1.63;;;1.15;;
6614;SDS011;3343;42.896;23.912;2023-02-21T14:03:48;1.02;;;0.90;;
6614;SDS011;3343;42.896;23.912;2023-02-21T14:06:29;1.40;;;0.90;;
6614;SDS011;3343;42.896;23.912;2023-02-21T14:08:59;1.20;;;1.10;;
6614;SDS011;3343;42.896;23.912;2023-02-21T14:11:33;1.10;;;1.00;;
6614;SDS011;3343;42.896;23.912;2023-02-21T14:14:05;1.45;;;1.10;;
6614;SDS011;3343;42.896;23.912;2023-02-21T14:16:46;1.35;;;0.98;;
6614;SDS011;3343;42.896;23.912;2023-02-21T14:19:18;1.17;;;1.08;;
6614;SDS011;3343;42.896;23.912;2023-02-21T14:21:50;1.17;;;0.98;;
6614;SDS011;3343;42.896;23.912;2023-02-21T14:24:21;2.97;;;1.30;;
6614;SDS011;3343;42.896;23.912;2023-02-21T14:26:52;1.02;;;0.90;;
6614;SDS011;3343;42.896;23.912;2023-02-21T14:29:30;0.85;;;0.85;;
6614;SDS011;3343;42.896;23.912;2023-02-21T14:35:00;1.35;;;1.15;;
6614;SDS011;3343;42.896;23.912;2023-02-21T14:37:39;1.98;;;1.10;;
6614;SDS011;3343;42.896;23.912;2023-02-21T14:40:16;1.17;;;0.90;;
6614;SDS011;3343;42.896;23.912;2023-02-21T14:42:59;0.80;;;0.80;;
6614;SDS011;3343;42.896;23.912;2023-02-21T14:45:50;1.45;;;0.85;;
6614;SDS011;3343;42.896;23.912;2023-02-21T14:51:51;1.30;;;1.10;;
6614;SDS011;3343;42.896;23.912;2023-02-21T14:54:42;0.85;;;0.80;;
6614;SDS011;3343;42.896;23.912;2023-02-21T14:57:48;1.85;;;1.15;;
6614;SDS011;3343;42.896;23.912;2023-02-21T15:00:30;3.92;;;1.10;;
6614;SDS011;3343;42.896;23.912;2023-02-21T15:03:04;1.08;;;0.88;;
6614;SDS011;3343;42.896;23.912;2023-02-21T15:05:39;1.15;;;1.05;;
6614;SDS011;3343;42.896;23.912;2023-02-21T15:08:15;1.83;;;1.02;;
6614;SDS011;3343;42.896;23.912;2023-02-21T15:10:43;3.97;;;1.40;;
6614;SDS011;3343;42.896;23.912;2023-02-21T15:13:19;1.30;;;0.95;;
6614;SDS011;3343;42.896;23.912;2023-02-21T15:15:49;1.30;;;1.20;;
6614;SDS011;3343;42.896;23.912;2023-02-21T15:18:24;1.20;;;1.10;;
6614;SDS011;3343;42.896;23.912;2023-02-21T15:21:03;1.20;;;1.10;;
6614;SDS011;3343;42.896;23.912;2023-02-21T15:23:32;1.67;;;1.20;;
6614;SDS011;3343;42.896;23.912;2023-02-21T15:26:00;2.40;;;1.00;;
6614;SDS011;3343;42.896;23.912;2023-02-21T15:28:41;1.60;;;1.03;;
6614;SDS011;3343;42.896;23.912;2023-02-21T15:31:08;1.63;;;1.30;;
6614;SDS011;3343;42.896;23.912;2023-02-21T15:33:38;1.20;;;0.90;;
6614;SDS011;3343;42.896;23.912;2023-02-21T15:36:07;1.43;;;1.03;;
6614;SDS011;3343;42.896;23.912;2023-02-21T15:38:42;1.50;;;1.30;;
6614;SDS011;3343;42.896;23.912;2023-02-21T15:41:13;1.40;;;1.30;;
6614;SDS011;3343;42.896;23.912;2023-02-21T15:43:46;1.20;;;1.10;;
6614;SDS011;3343;42.896;23.912;2023-02-21T15:46:17;1.30;;;1.20;;
6614;SDS011;3343;42.896;23.912;2023-02-21T15:48:50;1.83;;;1.20;;
6614;SDS011;3343;42.896;23.912;2023-02-21T15:51:20;1.07;;;0.97;;
6614;SDS011;3343;42.896;23.912;2023-02-21T15:56:35;3.53;;;1.20;;
6614;SDS011;3343;42.896;23.912;2023-02-21T15:59:12;1.50;;;1.40;;
6614;SDS011;3343;42.896;23.912;2023-02-21T16:04:35;5.97;;;1.20;;
6614;SDS011;3343;42.896;23.912;2023-02-21T16:07:04;1.63;;;1.20;;
6614;SDS011;3343;42.896;23.912;2023-02-21T16:09:33;5.00;;;1.30;;
6614;SDS011;3343;42.896;23.912;2023-02-21T16:12:03;2.30;;;1.40;;
6614;SDS011;3343;42.896;23.912;2023-02-21T16:14:36;9.80;;;2.20;;